Sunworld-8 — TC8272 — position and weather

sailwx.info

Track history (hours):
 
Tides and Currents Weather Stations Pressure Air Temp Water Temp Dewpoint Dewpoint Depression Visibility Wind Speed Wind Dir Waves Ship Positions

Sunworld-8

Last reported at 2017-Sep-27 06:55 UTC. Time now 2017-Oct-18 15:10 UTC.
Position N 37°26' E 025°55'.
Warning: this ship's position is 21 days out of date.

Length 20 m.

Type: Sailing vessel. MMSI: 271041102.

Date/timePositionNaut miles runAvg speedWind from/ knotsBaromVisibWave heightAir tempDewpointWater temp
2017-Sep-27 06:55N 37°26' E 025°55'3 8.2
2017-Sep-27 06:31N 37°24' E 025°51'4 8.3
2017-Sep-27 06:01N 37°23' E 025°47'7 8.5
2017-Sep-27 05:11N 37°22' E 025°38'2 8.7
2017-Sep-27 05:00N 37°22' E 025°36'4 8.5
2017-Sep-27 04:31N 37°22' E 025°31'4 8.8
2017-Sep-27 04:01N 37°23' E 025°25'4 8.7
2017-Sep-27 03:30N 37°23' E 025°20'3 7.0
2017-Sep-27 03:01N 37°27' E 025°18'1 2.1
2017-Sep-27 02:30N 37°26' E 025°19'0 0.0
2017-Sep-27 02:00N 37°26' E 025°19'0 0.0
2017-Sep-27 01:31N 37°26' E 025°19'0 0.0
2017-Sep-27 01:01N 37°26' E 025°19'0 0.0
2017-Sep-27 00:30N 37°26' E 025°19'0 0.0
2017-Sep-27 00:01N 37°26' E 025°19'0 0.0
2017-Sep-26 23:31N 37°26' E 025°19'0 0.0
2017-Sep-26 23:00N 37°26' E 025°19'0 0.0
2017-Sep-26 22:30N 37°26' E 025°19'0 0.0
2017-Sep-26 22:00N 37°26' E 025°19'0 0.0
2017-Sep-26 21:30N 37°26' E 025°19'0 0.0
2017-Sep-26 21:00N 37°26' E 025°19'0 0.0
2017-Sep-26 20:31N 37°26' E 025°19'0 0.0
2017-Sep-26 20:00N 37°26' E 025°19'0 0.0
2017-Sep-26 19:31N 37°26' E 025°19'0 0.0
2017-Sep-26 19:01N 37°26' E 025°19'0 0.0
2017-Sep-26 18:30N 37°26' E 025°19'0 0.0
2017-Sep-26 18:01N 37°26' E 025°19'0 0.0
2017-Sep-26 17:30N 37°26' E 025°19'0 0.0
2017-Sep-26 17:00N 37°26' E 025°19'0 0.0
2017-Sep-26 16:30N 37°26' E 025°19'0 0.0
2017-Sep-26 16:01N 37°27' E 025°19'0 0.0
2017-Sep-26 15:31N 37°27' E 025°19'0 0.0
2017-Sep-26 15:01N 37°26' E 025°19'0 0.0
2017-Sep-26 14:30N 37°27' E 025°19'0 0.0
2017-Sep-26 14:00N 37°26' E 025°19'0 0.0
2017-Sep-26 13:30N 37°26' E 025°19'0 0.0
2017-Sep-26 13:00N 37°26' E 025°19'0 0.0
2017-Sep-26 12:31N 37°26' E 025°19'0 0.0
2017-Sep-26 12:01N 37°26' E 025°19'0 0.0
2017-Sep-26 11:30N 37°26' E 025°19'0 0.0
2017-Sep-26 11:01N 37°26' E 025°19'0 0.0
2017-Sep-26 10:30N 37°26' E 025°19'0 0.0
2017-Sep-26 10:00N 37°26' E 025°19'0 0.0
2017-Sep-26 09:30N 37°26' E 025°19'0 0.0
2017-Sep-26 09:01N 37°26' E 025°19'0 0.0
2017-Sep-26 08:30N 37°26' E 025°19'0 0.0
2017-Sep-26 08:01N 37°26' E 025°19'0 0.6
2017-Sep-26 07:30N 37°27' E 025°19'1 2.5
2017-Sep-26 07:00N 37°28' E 025°19'0 0.0
2017-Sep-26 06:31N 37°28' E 025°19'0 0.0
2017-Sep-26 06:00N 37°28' E 025°19'0 0.0
2017-Sep-26 05:30N 37°28' E 025°19'1 1.5
2017-Sep-26 05:00N 37°27' E 025°19'4 7.7
2017-Sep-26 04:31N 37°29' E 025°15'4 7.8
2017-Sep-26 04:00N 37°31' E 025°10'1 2.3
2017-Sep-26 03:30N 37°32' E 025°10'0 0.0
2017-Sep-26 03:00N 37°32' E 025°10'0 0.0
2017-Sep-26 02:31N 37°32' E 025°10'0 0.0
2017-Sep-26 02:00N 37°32' E 025°10'0 0.0
2017-Sep-26 01:30N 37°32' E 025°10'0 0.0
2017-Sep-26 01:00N 37°32' E 025°10'0 0.0
2017-Sep-26 00:31N 37°32' E 025°10'0 0.0
2017-Sep-26 00:00N 37°32' E 025°10'0 0.0
2017-Sep-25 23:31N 37°32' E 025°10'0 0.0
2017-Sep-25 23:01N 37°32' E 025°10'0 0.0
2017-Sep-25 22:27N 37°32' E 025°10'0 0.0
2017-Sep-25 22:00N 37°32' E 025°10'0 0.0
2017-Sep-25 21:31N 37°32' E 025°10'0 0.0
2017-Sep-25 21:01N 37°32' E 025°10'0 0.0
2017-Sep-25 20:31N 37°32' E 025°10'0 0.0
2017-Sep-25 20:00N 37°32' E 025°10'0 0.0
2017-Sep-25 19:30N 37°32' E 025°10'0 0.0
2017-Sep-25 19:00N 37°32' E 025°10'0 0.0
2017-Sep-25 18:30N 37°32' E 025°10'0 0.0
2017-Sep-25 18:00N 37°32' E 025°10'0 0.0
2017-Sep-25 17:31N 37°32' E 025°10'0 0.0
2017-Sep-25 17:01N 37°32' E 025°10'0 0.0
2017-Sep-25 16:30N 37°32' E 025°10'0 0.0
2017-Sep-25 16:00N 37°32' E 025°10'0 0.0
2017-Sep-25 15:31N 37°32' E 025°10'0 0.0
2017-Sep-25 14:59N 37°32' E 025°10'0 0.0
2017-Sep-25 14:30N 37°32' E 025°10'0 0.0
2017-Sep-25 14:00N 37°32' E 025°10'0 0.0
2017-Sep-25 13:31N 37°32' E 025°10'0 0.0
2017-Sep-25 13:01N 37°32' E 025°10'0 0.0
2017-Sep-25 12:31N 37°32' E 025°10'0 0.0
2017-Sep-25 12:01N 37°32' E 025°10'0 0.0
2017-Sep-25 11:30N 37°32' E 025°10'0 0.0
2017-Sep-25 11:00N 37°32' E 025°10'0 0.0
2017-Sep-25 10:31N 37°32' E 025°10'0 0.0
2017-Sep-25 10:01N 37°32' E 025°10'0 0.0
2017-Sep-25 09:30N 37°32' E 025°10'0 0.0
2017-Sep-25 09:00N 37°32' E 025°10'0 0.0
2017-Sep-25 08:31N 37°32' E 025°10'0 0.0
2017-Sep-25 08:00N 37°32' E 025°10'0 0.0
2017-Sep-25 07:26N 37°32' E 025°10'0 0.0
2017-Sep-25 07:00N 37°32' E 025°10'2 3.4
2017-Sep-25 06:30N 37°31' E 025°08'4 8.2
2017-Sep-25 06:00N 37°28' E 025°05'5 8.5
2017-Sep-25 05:28N 37°25' E 025°00'4 8.0
2017-Sep-25 05:00N 37°23' E 024°56'0 0.6
2017-Sep-25 04:28N 37°23' E 024°57'0 0.0
2017-Sep-25 04:00N 37°23' E 024°57'0 0.0
2017-Sep-25 03:30N 37°23' E 024°57'0 0.0
2017-Sep-25 03:00N 37°23' E 024°57'0 0.0
2017-Sep-25 02:31N 37°23' E 024°57'0 0.0
2017-Sep-25 02:00N 37°23' E 024°57'0 0.0
2017-Sep-25 01:30N 37°23' E 024°57'0 0.0
2017-Sep-25 00:58N 37°23' E 024°57'0 0.0
2017-Sep-25 00:29N 37°23' E 024°57'0 0.0
2017-Sep-25 00:00N 37°23' E 024°57'0 0.0
2017-Sep-24 23:30N 37°23' E 024°57'0 0.0
2017-Sep-24 23:01N 37°23' E 024°57'0 0.0
2017-Sep-24 22:27N 37°23' E 024°57'0 0.0
2017-Sep-24 21:56N 37°23' E 024°57'0 0.0
2017-Sep-24 21:22N 37°23' E 024°57'0 0.0
2017-Sep-24 20:59N 37°23' E 024°57'0 0.0
2017-Sep-24 20:30N 37°23' E 024°57'0 0.0
2017-Sep-24 19:59N 37°23' E 024°57'0 0.0
2017-Sep-24 19:30N 37°23' E 024°57'0 0.0
2017-Sep-24 18:59N 37°23' E 024°57'0 0.0
2017-Sep-24 18:30N 37°23' E 024°57'0 0.0
2017-Sep-24 18:00N 37°23' E 024°57'0 0.0
2017-Sep-24 17:30N 37°23' E 024°57'0 0.0
2017-Sep-24 16:59N 37°23' E 024°57'0 0.0
2017-Sep-24 16:30N 37°23' E 024°57'0 0.0
2017-Sep-24 16:00N 37°23' E 024°57'0 0.0
2017-Sep-24 15:30N 37°23' E 024°57'0 0.0
2017-Sep-24 15:00N 37°23' E 024°57'0 0.0
2017-Sep-24 14:30N 37°23' E 024°57'0 0.0
2017-Sep-24 14:00N 37°23' E 024°57'0 0.0
2017-Sep-24 13:30N 37°23' E 024°57'0 0.0
2017-Sep-24 13:00N 37°23' E 024°57'0 0.0
2017-Sep-24 12:31N 37°23' E 024°57'0 0.0
2017-Sep-24 12:00N 37°23' E 024°57'0 0.0
2017-Sep-24 11:29N 37°23' E 024°57'0 0.0
2017-Sep-24 10:58N 37°23' E 024°57'0 0.0
2017-Sep-24 10:23N 37°23' E 024°57'0 0.1
2017-Sep-24 09:12N 37°23' E 024°57'0 0.1
2017-Sep-24 09:00N 37°23' E 024°57'0 0.0
2017-Sep-24 08:31N 37°23' E 024°57'0 0.0
2017-Sep-24 08:00N 37°23' E 024°57'0 0.0
2017-Sep-24 07:30N 37°23' E 024°57'0 0.0
2017-Sep-24 07:00N 37°23' E 024°57'0 0.0
2017-Sep-24 06:30N 37°23' E 024°57'0 0.0
2017-Sep-24 06:00N 37°23' E 024°57'2 4.9
2017-Sep-24 05:31N 37°21' E 024°58'4 7.6
2017-Sep-24 05:01N 37°18' E 025°01'4 7.9
2017-Sep-24 04:30N 37°14' E 025°03'4 7.7
2017-Sep-24 04:00N 37°11' E 025°05'4 8.1
2017-Sep-24 03:30N 37°07' E 025°07'  
Track history (hours):
 
Tides and Currents Weather Stations Pressure Air Temp Water Temp Dewpoint Dewpoint Depression Visibility Wind Speed Wind Dir Waves Ship Positions

Sunworld-8

Last reported at 2017-Sep-27 06:55 UTC. Time now 2017-Oct-18 15:10 UTC.
Position N 37°26' E 025°55'.
Warning: this ship's position is 21 days out of date.

Length 20 m.

Type: Sailing vessel. MMSI: 271041102.

Date/timePositionNaut miles runAvg speedWind from/ knotsBaromVisibWave heightAir tempDewpointWater temp
2017-Sep-27 06:55N 37°26' E 025°55'3 8.2
2017-Sep-27 06:31N 37°24' E 025°51'4 8.3
2017-Sep-27 06:01N 37°23' E 025°47'7 8.5
2017-Sep-27 05:11N 37°22' E 025°38'2 8.7
2017-Sep-27 05:00N 37°22' E 025°36'4 8.5
2017-Sep-27 04:31N 37°22' E 025°31'4 8.8
2017-Sep-27 04:01N 37°23' E 025°25'4 8.7
2017-Sep-27 03:30N 37°23' E 025°20'3 7.0
2017-Sep-27 03:01N 37°27' E 025°18'1 2.1
2017-Sep-27 02:30N 37°26' E 025°19'0 0.0
2017-Sep-27 02:00N 37°26' E 025°19'0 0.0
2017-Sep-27 01:31N 37°26' E 025°19'0 0.0
2017-Sep-27 01:01N 37°26' E 025°19'0 0.0
2017-Sep-27 00:30N 37°26' E 025°19'0 0.0
2017-Sep-27 00:01N 37°26' E 025°19'0 0.0
2017-Sep-26 23:31N 37°26' E 025°19'0 0.0
2017-Sep-26 23:00N 37°26' E 025°19'0 0.0
2017-Sep-26 22:30N 37°26' E 025°19'0 0.0
2017-Sep-26 22:00N 37°26' E 025°19'0 0.0
2017-Sep-26 21:30N 37°26' E 025°19'0 0.0
2017-Sep-26 21:00N 37°26' E 025°19'0 0.0
2017-Sep-26 20:31N 37°26' E 025°19'0 0.0
2017-Sep-26 20:00N 37°26' E 025°19'0 0.0
2017-Sep-26 19:31N 37°26' E 025°19'0 0.0
2017-Sep-26 19:01N 37°26' E 025°19'0 0.0
2017-Sep-26 18:30N 37°26' E 025°19'0 0.0
2017-Sep-26 18:01N 37°26' E 025°19'0 0.0
2017-Sep-26 17:30N 37°26' E 025°19'0 0.0
2017-Sep-26 17:00N 37°26' E 025°19'0 0.0
2017-Sep-26 16:30N 37°26' E 025°19'0 0.0
2017-Sep-26 16:01N 37°27' E 025°19'0 0.0
2017-Sep-26 15:31N 37°27' E 025°19'0 0.0
2017-Sep-26 15:01N 37°26' E 025°19'0 0.0
2017-Sep-26 14:30N 37°27' E 025°19'0 0.0
2017-Sep-26 14:00N 37°26' E 025°19'0 0.0
2017-Sep-26 13:30N 37°26' E 025°19'0 0.0
2017-Sep-26 13:00N 37°26' E 025°19'0 0.0
2017-Sep-26 12:31N 37°26' E 025°19'0 0.0
2017-Sep-26 12:01N 37°26' E 025°19'0 0.0
2017-Sep-26 11:30N 37°26' E 025°19'0 0.0
2017-Sep-26 11:01N 37°26' E 025°19'0 0.0
2017-Sep-26 10:30N 37°26' E 025°19'0 0.0
2017-Sep-26 10:00N 37°26' E 025°19'0 0.0
2017-Sep-26 09:30N 37°26' E 025°19'0 0.0
2017-Sep-26 09:01N 37°26' E 025°19'0 0.0
2017-Sep-26 08:30N 37°26' E 025°19'0 0.0
2017-Sep-26 08:01N 37°26' E 025°19'0 0.6
2017-Sep-26 07:30N 37°27' E 025°19'1 2.5
2017-Sep-26 07:00N 37°28' E 025°19'0 0.0
2017-Sep-26 06:31N 37°28' E 025°19'0 0.0
2017-Sep-26 06:00N 37°28' E 025°19'0 0.0
2017-Sep-26 05:30N 37°28' E 025°19'1 1.5
2017-Sep-26 05:00N 37°27' E 025°19'4 7.7
2017-Sep-26 04:31N 37°29' E 025°15'4 7.8
2017-Sep-26 04:00N 37°31' E 025°10'1 2.3
2017-Sep-26 03:30N 37°32' E 025°10'0 0.0
2017-Sep-26 03:00N 37°32' E 025°10'0 0.0
2017-Sep-26 02:31N 37°32' E 025°10'0 0.0
2017-Sep-26 02:00N 37°32' E 025°10'0 0.0
2017-Sep-26 01:30N 37°32' E 025°10'0 0.0
2017-Sep-26 01:00N 37°32' E 025°10'0 0.0
2017-Sep-26 00:31N 37°32' E 025°10'0 0.0
2017-Sep-26 00:00N 37°32' E 025°10'0 0.0
2017-Sep-25 23:31N 37°32' E 025°10'0 0.0
2017-Sep-25 23:01N 37°32' E 025°10'0 0.0
2017-Sep-25 22:27N 37°32' E 025°10'0 0.0
2017-Sep-25 22:00N 37°32' E 025°10'0 0.0
2017-Sep-25 21:31N 37°32' E 025°10'0 0.0
2017-Sep-25 21:01N 37°32' E 025°10'0 0.0
2017-Sep-25 20:31N 37°32' E 025°10'0 0.0
2017-Sep-25 20:00N 37°32' E 025°10'0 0.0
2017-Sep-25 19:30N 37°32' E 025°10'0 0.0
2017-Sep-25 19:00N 37°32' E 025°10'0 0.0
2017-Sep-25 18:30N 37°32' E 025°10'0 0.0
2017-Sep-25 18:00N 37°32' E 025°10'0 0.0
2017-Sep-25 17:31N 37°32' E 025°10'0 0.0
2017-Sep-25 17:01N 37°32' E 025°10'0 0.0
2017-Sep-25 16:30N 37°32' E 025°10'0 0.0
2017-Sep-25 16:00N 37°32' E 025°10'0 0.0
2017-Sep-25 15:31N 37°32' E 025°10'0 0.0
2017-Sep-25 14:59N 37°32' E 025°10'0 0.0
2017-Sep-25 14:30N 37°32' E 025°10'0 0.0
2017-Sep-25 14:00N 37°32' E 025°10'0 0.0
2017-Sep-25 13:31N 37°32' E 025°10'0 0.0
2017-Sep-25 13:01N 37°32' E 025°10'0 0.0
2017-Sep-25 12:31N 37°32' E 025°10'0 0.0
2017-Sep-25 12:01N 37°32' E 025°10'0 0.0
2017-Sep-25 11:30N 37°32' E 025°10'0 0.0
2017-Sep-25 11:00N 37°32' E 025°10'0 0.0
2017-Sep-25 10:31N 37°32' E 025°10'0 0.0
2017-Sep-25 10:01N 37°32' E 025°10'0 0.0
2017-Sep-25 09:30N 37°32' E 025°10'0 0.0
2017-Sep-25 09:00N 37°32' E 025°10'0 0.0
2017-Sep-25 08:31N 37°32' E 025°10'0 0.0
2017-Sep-25 08:00N 37°32' E 025°10'0 0.0
2017-Sep-25 07:26N 37°32' E 025°10'0 0.0
2017-Sep-25 07:00N 37°32' E 025°10'2 3.4
2017-Sep-25 06:30N 37°31' E 025°08'4 8.2
2017-Sep-25 06:00N 37°28' E 025°05'5 8.5
2017-Sep-25 05:28N 37°25' E 025°00'4 8.0
2017-Sep-25 05:00N 37°23' E 024°56'0 0.6
2017-Sep-25 04:28N 37°23' E 024°57'0 0.0
2017-Sep-25 04:00N 37°23' E 024°57'0 0.0
2017-Sep-25 03:30N 37°23' E 024°57'0 0.0
2017-Sep-25 03:00N 37°23' E 024°57'0 0.0
2017-Sep-25 02:31N 37°23' E 024°57'0 0.0
2017-Sep-25 02:00N 37°23' E 024°57'0 0.0
2017-Sep-25 01:30N 37°23' E 024°57'0 0.0
2017-Sep-25 00:58N 37°23' E 024°57'0 0.0
2017-Sep-25 00:29N 37°23' E 024°57'0 0.0
2017-Sep-25 00:00N 37°23' E 024°57'0 0.0
2017-Sep-24 23:30N 37°23' E 024°57'0 0.0
2017-Sep-24 23:01N 37°23' E 024°57'0 0.0
2017-Sep-24 22:27N 37°23' E 024°57'0 0.0
2017-Sep-24 21:56N 37°23' E 024°57'0 0.0
2017-Sep-24 21:22N 37°23' E 024°57'0 0.0
2017-Sep-24 20:59N 37°23' E 024°57'0 0.0
2017-Sep-24 20:30N 37°23' E 024°57'0 0.0
2017-Sep-24 19:59N 37°23' E 024°57'0 0.0
2017-Sep-24 19:30N 37°23' E 024°57'0 0.0
2017-Sep-24 18:59N 37°23' E 024°57'0 0.0
2017-Sep-24 18:30N 37°23' E 024°57'0 0.0
2017-Sep-24 18:00N 37°23' E 024°57'0 0.0
2017-Sep-24 17:30N 37°23' E 024°57'0 0.0
2017-Sep-24 16:59N 37°23' E 024°57'0 0.0
2017-Sep-24 16:30N 37°23' E 024°57'0 0.0
2017-Sep-24 16:00N 37°23' E 024°57'0 0.0
2017-Sep-24 15:30N 37°23' E 024°57'0 0.0
2017-Sep-24 15:00N 37°23' E 024°57'0 0.0
2017-Sep-24 14:30N 37°23' E 024°57'0 0.0
2017-Sep-24 14:00N 37°23' E 024°57'0 0.0
2017-Sep-24 13:30N 37°23' E 024°57'0 0.0
2017-Sep-24 13:00N 37°23' E 024°57'0 0.0
2017-Sep-24 12:31N 37°23' E 024°57'0 0.0
2017-Sep-24 12:00N 37°23' E 024°57'0 0.0
2017-Sep-24 11:29N 37°23' E 024°57'0 0.0
2017-Sep-24 10:58N 37°23' E 024°57'0 0.0
2017-Sep-24 10:23N 37°23' E 024°57'0 0.1
2017-Sep-24 09:12N 37°23' E 024°57'0 0.1
2017-Sep-24 09:00N 37°23' E 024°57'0 0.0
2017-Sep-24 08:31N 37°23' E 024°57'0 0.0
2017-Sep-24 08:00N 37°23' E 024°57'0 0.0
2017-Sep-24 07:30N 37°23' E 024°57'0 0.0
2017-Sep-24 07:00N 37°23' E 024°57'0 0.0
2017-Sep-24 06:30N 37°23' E 024°57'0 0.0
2017-Sep-24 06:00N 37°23' E 024°57'2 4.9
2017-Sep-24 05:31N 37°21' E 024°58'4 7.6
2017-Sep-24 05:01N 37°18' E 025°01'4 7.9
2017-Sep-24 04:30N 37°14' E 025°03'4 7.7
2017-Sep-24 04:00N 37°11' E 025°05'4 8.1
2017-Sep-24 03:30N 37°07' E 025°07'  

Dump ship's entire track history